sensor_id;sensor_type;location;lat;lon;timestamp;P1;durP1;ratioP1;P2;durP2;ratioP2
41426;SDS011;27171;51.812;19.514;2022-09-21T03:34:02;15.10;;;13.53;;
41426;SDS011;27171;51.812;19.514;2022-09-21T03:37:04;14.07;;;12.63;;
41426;SDS011;27171;51.812;19.514;2022-09-21T03:40:06;16.23;;;14.50;;
41426;SDS011;27171;51.812;19.514;2022-09-21T03:43:08;16.48;;;13.48;;
41426;SDS011;27171;51.812;19.514;2022-09-21T03:49:10;14.20;;;12.50;;
41426;SDS011;27171;51.812;19.514;2022-09-21T03:52:11;16.92;;;12.90;;
41426;SDS011;27171;51.812;19.514;2022-09-21T03:55:12;13.50;;;12.07;;
41426;SDS011;27171;51.812;19.514;2022-09-21T03:58:14;15.48;;;13.13;;
41426;SDS011;27171;51.812;19.514;2022-09-21T04:01:16;15.07;;;12.63;;
41426;SDS011;27171;51.812;19.514;2022-09-21T04:07:18;13.95;;;12.02;;
41426;SDS011;27171;51.812;19.514;2022-09-21T04:13:20;14.38;;;10.90;;
41426;SDS011;27171;51.812;19.514;2022-09-21T04:19:23;14.02;;;11.75;;
41426;SDS011;27171;51.812;19.514;2022-09-21T04:22:24;15.88;;;14.20;;
41426;SDS011;27171;51.812;19.514;2022-09-21T16:42:07;4.97;;;2.53;;
41426;SDS011;27171;51.812;19.514;2022-09-21T16:45:11;3.72;;;2.78;;
41426;SDS011;27171;51.812;19.514;2022-09-21T16:48:21;4.40;;;2.92;;
41426;SDS011;27171;51.812;19.514;2022-09-21T16:54:25;6.13;;;3.03;;
41426;SDS011;27171;51.812;19.514;2022-09-21T16:57:27;3.33;;;2.17;;
41426;SDS011;27171;51.812;19.514;2022-09-21T17:00:29;4.35;;;3.00;;
41426;SDS011;27171;51.812;19.514;2022-09-21T17:03:37;4.10;;;2.58;;
41426;SDS011;27171;51.812;19.514;2022-09-21T17:06:42;5.10;;;2.70;;
41426;SDS011;27171;51.812;19.514;2022-09-21T17:09:44;6.50;;;3.38;;
41426;SDS011;27171;51.812;19.514;2022-09-21T17:12:45;4.60;;;2.50;;
41426;SDS011;27171;51.812;19.514;2022-09-21T17:18:48;5.75;;;3.88;;
41426;SDS011;27171;51.812;19.514;2022-09-21T17:24:50;7.03;;;4.75;;
41426;SDS011;27171;51.812;19.514;2022-09-21T17:27:52;7.15;;;5.13;;
41426;SDS011;27171;51.812;19.514;2022-09-21T17:30:53;7.00;;;4.47;;
41426;SDS011;27171;51.812;19.514;2022-09-21T17:33:54;10.10;;;4.88;;
41426;SDS011;27171;51.812;19.514;2022-09-21T17:36:55;6.65;;;5.13;;
41426;SDS011;27171;51.812;19.514;2022-09-21T17:39:56;5.93;;;3.72;;
41426;SDS011;27171;51.812;19.514;2022-09-21T17:43:22;6.35;;;3.50;;
41426;SDS011;27171;51.812;19.514;2022-09-21T17:49:58;4.70;;;2.63;;
41426;SDS011;27171;51.812;19.514;2022-09-21T17:53:14;7.78;;;2.35;;
41426;SDS011;27171;51.812;19.514;2022-09-21T18:02:37;3.55;;;1.70;;
41426;SDS011;27171;51.812;19.514;2022-09-21T18:05:38;3.80;;;2.03;;
41426;SDS011;27171;51.812;19.514;2022-09-21T18:08:40;4.88;;;1.83;;
41426;SDS011;27171;51.812;19.514;2022-09-21T18:11:54;3.13;;;1.38;;
41426;SDS011;27171;51.812;19.514;2022-09-21T18:18:57;2.90;;;2.33;;
41426;SDS011;27171;51.812;19.514;2022-09-21T18:25:43;4.20;;;2.50;;
41426;SDS011;27171;51.812;19.514;2022-09-21T18:28:47;3.05;;;1.70;;
41426;SDS011;27171;51.812;19.514;2022-09-21T18:39:27;3.67;;;1.60;;
41426;SDS011;27171;51.812;19.514;2022-09-21T18:43:17;4.40;;;1.40;;
41426;SDS011;27171;51.812;19.514;2022-09-21T18:46:18;3.28;;;1.80;;
41426;SDS011;27171;51.812;19.514;2022-09-21T18:52:56;3.15;;;1.10;;
41426;SDS011;27171;51.812;19.514;2022-09-21T18:55:59;3.13;;;1.20;;
41426;SDS011;27171;51.812;19.514;2022-09-21T18:59:01;3.22;;;1.23;;
41426;SDS011;27171;51.812;19.514;2022-09-21T19:02:05;4.03;;;1.25;;
41426;SDS011;27171;51.812;19.514;2022-09-21T19:05:13;3.05;;;1.20;;
41426;SDS011;27171;51.812;19.514;2022-09-21T19:15:03;4.63;;;1.25;;
41426;SDS011;27171;51.812;19.514;2022-09-21T19:18:31;3.67;;;0.82;;
41426;SDS011;27171;51.812;19.514;2022-09-21T19:21:50;3.47;;;1.13;;
41426;SDS011;27171;51.812;19.514;2022-09-21T19:25:42;3.13;;;1.25;;
41426;SDS011;27171;51.812;19.514;2022-09-21T19:31:48;3.20;;;1.55;;
41426;SDS011;27171;51.812;19.514;2022-09-21T19:35:18;5.45;;;1.80;;
41426;SDS011;27171;51.812;19.514;2022-09-21T19:38:21;3.90;;;1.85;;
41426;SDS011;27171;51.812;19.514;2022-09-21T19:42:06;4.20;;;2.47;;
41426;SDS011;27171;51.812;19.514;2022-09-21T19:48:08;6.50;;;2.50;;
41426;SDS011;27171;51.812;19.514;2022-09-21T19:51:19;4.93;;;2.35;;
41426;SDS011;27171;51.812;19.514;2022-09-21T19:54:43;4.03;;;2.60;;
41426;SDS011;27171;51.812;19.514;2022-09-21T19:57:45;4.95;;;2.50;;
41426;SDS011;27171;51.812;19.514;2022-09-21T20:00:48;5.13;;;2.50;;
41426;SDS011;27171;51.812;19.514;2022-09-21T20:03:51;4.47;;;2.58;;
41426;SDS011;27171;51.812;19.514;2022-09-21T20:06:54;4.80;;;2.80;;
41426;SDS011;27171;51.812;19.514;2022-09-21T20:10:06;5.50;;;3.03;;
41426;SDS011;27171;51.812;19.514;2022-09-21T20:23:24;4.05;;;2.10;;
41426;SDS011;27171;51.812;19.514;2022-09-21T20:26:26;3.92;;;2.15;;
41426;SDS011;27171;51.812;19.514;2022-09-21T20:29:27;4.85;;;2.53;;
41426;SDS011;27171;51.812;19.514;2022-09-21T20:32:28;5.35;;;2.58;;
41426;SDS011;27171;51.812;19.514;2022-09-21T20:35:29;3.45;;;2.33;;
41426;SDS011;27171;51.812;19.514;2022-09-21T20:38:31;4.60;;;2.58;;
41426;SDS011;27171;51.812;19.514;2022-09-21T20:44:33;4.25;;;2.03;;
41426;SDS011;27171;51.812;19.514;2022-09-21T20:47:34;3.97;;;2.30;;
41426;SDS011;27171;51.812;19.514;2022-09-21T20:50:35;4.63;;;2.97;;
41426;SDS011;27171;51.812;19.514;2022-09-21T20:53:38;5.40;;;3.15;;
41426;SDS011;27171;51.812;19.514;2022-09-21T20:56:40;4.63;;;2.53;;
41426;SDS011;27171;51.812;19.514;2022-09-21T20:59:41;6.85;;;2.88;;
41426;SDS011;27171;51.812;19.514;2022-09-21T21:02:42;7.20;;;3.47;;
41426;SDS011;27171;51.812;19.514;2022-09-21T21:05:43;6.38;;;3.70;;
41426;SDS011;27171;51.812;19.514;2022-09-21T21:08:45;5.78;;;3.75;;
41426;SDS011;27171;51.812;19.514;2022-09-21T21:11:46;6.35;;;3.55;;
41426;SDS011;27171;51.812;19.514;2022-09-21T21:17:49;7.75;;;3.75;;
41426;SDS011;27171;51.812;19.514;2022-09-21T21:20:50;6.07;;;3.63;;
41426;SDS011;27171;51.812;19.514;2022-09-21T21:23:51;4.85;;;3.88;;
41426;SDS011;27171;51.812;19.514;2022-09-21T21:26:52;6.15;;;3.60;;
41426;SDS011;27171;51.812;19.514;2022-09-21T21:29:53;4.50;;;3.00;;
41426;SDS011;27171;51.812;19.514;2022-09-21T21:32:54;4.90;;;3.50;;
41426;SDS011;27171;51.812;19.514;2022-09-21T21:36:01;5.82;;;3.92;;
41426;SDS011;27171;51.812;19.514;2022-09-21T21:39:04;5.10;;;2.88;;
41426;SDS011;27171;51.812;19.514;2022-09-21T21:42:07;6.78;;;2.85;;
41426;SDS011;27171;51.812;19.514;2022-09-21T21:45:08;3.83;;;2.90;;
41426;SDS011;27171;51.812;19.514;2022-09-21T21:48:10;7.45;;;3.53;;
41426;SDS011;27171;51.812;19.514;2022-09-21T21:54:12;5.00;;;2.80;;
